• Join FlightAware (Why Join?)
  • Login
  • US Flag 
 
09:34AM EST


 

Airport Tracker/Info


-or-


 

Live Flight TrackerFlight Track Log ✈ N445D ✈ 04-May-2014 ✈ KAPF - KHWO

Flight Track Log - Related Links

Times and Time Zones

All times are in EDT time to prevent confusion due to time zone crossing. See the N445D flight status page for this flight to view local times or setup timezone preferences in your user account.

Time Position Orientation Groundspeed Altitude Reporting Facility
EDT Latitude Longitude Course Direction KTS MPH feet Rate Location/Type
01:00PM 26.1414 -81.5961 91° East 123 142 3,100  Level Miami Center
01:01PM 26.1386 -81.5589 95° East 123 142 3,100 -60 Level Miami Center
01:02PM 26.1382 -81.6231 98° East  Level Estimated
01:02PM 26.1417 -81.5219 85° East 123 142 3,000  Level Miami Center
01:03PM 26.1325 -81.5983 104° East  Level FlightAware Approximate
01:03PM 26.1450 -81.4853 84° East 118 136 3,100  Level Miami Center
01:04PM 26.1269 -81.5735 104° East  Level FlightAware Approximate
01:04PM 26.1439 -81.4528 92° East 118 136 3,000  Level Miami Center
01:05PM 26.1431 -81.4156 91° East 118 136 3,000 -120 Level Miami Center
01:06PM 26.1400 -81.3786 95° East 118 136 2,800 60 Descending Miami Center
01:07PM 26.1347 -81.3436 100° East 118 136 3,200 120 Climbing Miami Center
01:08PM 26.1317 -81.3089 96° East 123 142 3,100 -120 Descending Miami Center
01:09PM 26.1267 -81.2694 98° East 123 142 3,000 -60 Descending Miami Center
01:10PM 26.1278 -81.2278 88° East 123 142 3,000  Level Miami Center
01:11PM 26.1247 -81.1906 95° East 123 142 3,000  Level Miami Center
01:12PM 26.1175 -81.1558 103° East 123 142 3,000  Level Miami Center
01:13PM 26.1186 -81.1211 88° East 123 142 3,000  Level Miami Center
01:13PM 26.1172 -81.0956 93° East 120 138 3,100  Climbing Miami Center
01:14PM 26.1156 -81.0817 98° East 123 142 3,000 -120 Descending Miami Center
01:15PM 26.1144 -81.0444 92° East 123 142 3,000  Level Miami Center
01:16PM 26.1156 -81.0100 88° East 118 136 3,100  Climbing Miami Center
01:17PM 26.1122 -80.9750 96° East 118 136 3,000  Descending Miami Center
01:17PM 26.1025 -80.9517 115° Southeast 122 140 3,100 60 Climbing Miami Center
01:18PM 26.0989 -80.9308 101° East 109 125 3,100 -120 Level Miami Center
01:18PM 26.0931 -80.9142 111° Southeast 125 144 3,000 -120 Descending Miami Center
01:19PM 26.0978 -80.8936 76° East 114 131 3,000 60 Level Miami Center
01:19PM 26.0961 -80.8819 99° East 121 139 3,100  Climbing Miami Center
01:20PM 26.1028 -80.8639 68° East 109 125 3,000  Descending Miami Center
01:20PM 26.0992 -80.8428 101° East 122 140 3,100 -120 Climbing Miami Center
01:21PM 26.0997 -80.8197 88° East 109 125 2,900  Descending Miami Center
01:21PM 26.0981 -80.8033 96° East 123 142 3,100 60 Climbing Miami Center
01:22PM 26.1006 -80.7875 80° East 115 132 3,000 -540 Descending Miami Center
01:22PM 26.0992 -80.7664 94° East 122 140 2,600 -720 Descending Miami Center
01:23PM 26.0975 -80.7481 96° East 120 138 2,300 -540 Descending Miami Center
01:23PM 26.0897 -80.7339 121° Southeast 108 124 2,100 -180 Descending Miami Center
01:24PM 26.0781 -80.6917 107° East 124 143 2,100  Level Miami Center
01:25PM 26.0686 -80.6592 108° East 125 144 2,100  Level Miami Center
01:26PM 26.0508 -80.6147 114° Southeast 125 144 2,100  Level Miami Center
01:27PM 26.0453 -80.5867 102° East 120 138 2,100  Level Miami Center
01:28PM 26.0256 -80.5492 120° Southeast 121 139 2,100  Level Miami Center
01:29PM 26.0117 -80.5139 114° Southeast 125 144 2,100  Level Miami Center
01:30PM 26.0000 -80.4789 110° East 124 143 2,100 -180 Level Miami Center
01:31PM 25.9925 -80.4417 103° East 120 138 1,800 -240 Descending Miami Center
01:32PM 25.9956 -80.4025 85° East 113 130 1,700 -60 Descending Miami Center
01:33PM 25.9942 -80.3747 93° East 103 119 1,700  Level Miami Center
01:34PM 25.9950 -80.3472 88° East 90 104 1,700 -240 Level Miami Center
01:35PM 25.9933 -80.3194 94° East 87 100 1,300 -420 Descending Miami Center
01:36PM 25.9942 -80.2917 88° East 94 108 900 -300 Descending Miami Center
01:37PM 25.9822 -80.2611 113° Southeast 89 102 700 -300 Descending Miami Center
01:38PM 25.9847 -80.2428 81° East 71 82 300 -480 Descending Miami Center
01:40PM 26.0000 -80.2333 90° East  Level FlightAware Approximate
01:47PM 26.0012 -80.2407 90° East  Level Estimated